createdAt,value
2023-05-07T00:01:38.400Z,13.39
2023-05-07T00:04:07.134Z,12.81
2023-05-07T00:06:35.536Z,12.48
2023-05-07T00:09:04.688Z,12.63
2023-05-07T00:11:34.136Z,12.75
2023-05-07T00:14:03.436Z,12.88
2023-05-07T00:16:33.267Z,12.98
2023-05-07T00:19:01.575Z,13.17
2023-05-07T00:21:29.880Z,12.79
2023-05-07T00:23:58.122Z,12.65
2023-05-07T00:26:26.377Z,12.26
2023-05-07T00:28:54.704Z,12.33
2023-05-07T00:31:22.998Z,12.73
2023-05-07T00:33:52.658Z,12.83
2023-05-07T00:36:21.153Z,12.74
2023-05-07T00:38:49.509Z,12.39
2023-05-07T00:41:17.914Z,12.34
2023-05-07T00:43:46.557Z,12.55
2023-05-07T00:46:17.032Z,12.70
2023-05-07T00:48:45.471Z,12.83
2023-05-07T00:51:15.363Z,12.87
2023-05-07T00:53:43.707Z,12.90
2023-05-07T00:56:12.356Z,12.69
2023-05-07T00:58:40.822Z,12.72
2023-05-07T01:01:09.201Z,12.21
2023-05-07T01:03:37.619Z,12.26
2023-05-07T01:06:09.829Z,12.44
2023-05-07T01:08:40.956Z,12.33
2023-05-07T01:11:10.069Z,12.11
2023-05-07T01:13:39.220Z,12.39
2023-05-07T01:16:08.512Z,12.45
2023-05-07T01:18:36.890Z,12.52
2023-05-07T01:21:07.002Z,12.64
2023-05-07T01:23:37.900Z,12.43
2023-05-07T01:26:06.142Z,12.59
2023-05-07T01:28:34.438Z,12.51
2023-05-07T01:31:05.390Z,12.54
2023-05-07T01:33:36.861Z,12.47
2023-05-07T01:36:07.853Z,12.51
2023-05-07T01:38:38.656Z,12.57
2023-05-07T01:41:07.397Z,11.75
2023-05-07T01:43:35.914Z,11.59
2023-05-07T01:46:06.007Z,11.51
2023-05-07T01:48:35.723Z,11.55
2023-05-07T01:51:04.488Z,11.59
2023-05-07T01:53:39.583Z,11.55
2023-05-07T01:56:08.553Z,11.79
2023-05-07T01:58:36.873Z,12.02
2023-05-07T02:01:05.191Z,12.25
2023-05-07T02:03:33.588Z,12.31
2023-05-07T02:06:02.571Z,12.27
2023-05-07T02:08:31.245Z,12.35
2023-05-07T02:11:00.950Z,12.36
2023-05-07T02:13:31.713Z,12.37
2023-05-07T02:16:00.064Z,12.37
2023-05-07T02:18:28.719Z,12.07
2023-05-07T02:20:57.142Z,11.97
2023-05-07T02:23:25.818Z,11.86
2023-05-07T02:25:54.055Z,11.95
2023-05-07T02:28:23.735Z,11.45
2023-05-07T02:30:51.989Z,11.69
2023-05-07T02:33:20.522Z,11.87
2023-05-07T02:35:48.738Z,11.85
2023-05-07T02:38:17.032Z,11.87
2023-05-07T02:40:45.336Z,12.08
2023-05-07T02:43:13.602Z,12.09
2023-05-07T02:45:44.423Z,12.16
2023-05-07T02:48:12.751Z,11.97
2023-05-07T02:50:41.196Z,11.92
2023-05-07T02:53:09.513Z,11.68
2023-05-07T02:55:37.830Z,11.10
2023-05-07T02:58:06.089Z,11.36
2023-05-07T03:00:34.516Z,11.62
2023-05-07T03:03:04.189Z,11.62
2023-05-07T03:05:32.923Z,11.71
2023-05-07T03:08:01.158Z,11.78
2023-05-07T03:10:29.399Z,11.87
2023-05-07T03:12:57.713Z,11.84
2023-05-07T03:15:25.974Z,11.84
2023-05-07T03:17:54.311Z,11.80
2023-05-07T03:20:23.964Z,11.37
2023-05-07T03:22:52.283Z,11.85
2023-05-07T03:25:20.720Z,11.87
2023-05-07T03:27:49.122Z,11.74
2023-05-07T03:30:17.428Z,10.70
2023-05-07T03:32:45.843Z,11.36
2023-05-07T03:35:14.177Z,11.44
2023-05-07T03:37:43.818Z,11.51
2023-05-07T03:40:13.732Z,11.60
2023-05-07T03:42:42.334Z,11.76
2023-05-07T03:45:11.397Z,11.76
2023-05-07T03:47:39.966Z,11.78
2023-05-07T03:50:08.794Z,11.85
2023-05-07T03:52:37.145Z,11.83
2023-05-07T03:55:08.074Z,11.84
2023-05-07T03:57:36.414Z,11.86
2023-05-07T04:00:05.645Z,11.86
2023-05-07T04:02:35.190Z,11.91
2023-05-07T04:05:03.553Z,11.97
2023-05-07T04:07:31.820Z,11.95
2023-05-07T04:10:00.177Z,12.02
2023-05-07T04:12:29.881Z,12.09
2023-05-07T04:14:58.267Z,12.18
2023-05-07T04:17:26.621Z,12.26
2023-05-07T04:19:54.989Z,12.29
2023-05-07T04:22:23.183Z,12.37
2023-05-07T04:24:51.494Z,12.54
2023-05-07T04:27:19.904Z,12.01
2023-05-07T04:29:49.541Z,12.05
2023-05-07T04:32:18.803Z,12.36
2023-05-07T04:34:47.277Z,12.57
2023-05-07T04:37:15.566Z,12.72
2023-05-07T04:39:43.807Z,12.57
2023-05-07T04:42:16.857Z,12.23
2023-05-07T04:44:46.229Z,12.64
2023-05-07T04:47:16.107Z,12.78
2023-05-07T04:49:44.438Z,12.51
2023-05-07T04:52:12.666Z,12.41
2023-05-07T04:54:40.917Z,12.72
2023-05-07T04:57:09.579Z,13.10
2023-05-07T04:59:37.824Z,12.29
2023-05-07T05:02:06.563Z,12.38
2023-05-07T05:04:36.306Z,12.43
2023-05-07T05:07:05.743Z,12.63
2023-05-07T05:09:34.142Z,12.92
2023-05-07T05:12:15.790Z,12.60
2023-05-07T05:14:44.137Z,12.57
2023-05-07T05:17:17.807Z,12.43
2023-05-07T05:19:47.432Z,12.37
2023-05-07T05:22:15.707Z,12.39
2023-05-07T05:24:43.960Z,13.03
2023-05-07T05:27:12.305Z,13.08
2023-05-07T05:29:40.581Z,13.23
2023-05-07T05:32:08.908Z,13.10
2023-05-07T05:34:37.254Z,13.49
2023-05-07T05:37:07.194Z,13.59
2023-05-07T05:39:35.530Z,12.79
2023-05-07T05:42:03.970Z,13.34
2023-05-07T05:44:32.164Z,14.06
2023-05-07T05:47:00.617Z,13.78
2023-05-07T05:49:28.859Z,14.18
2023-05-07T05:51:57.277Z,14.17
2023-05-07T05:54:26.923Z,14.77
2023-05-07T05:56:55.334Z,14.33
2023-05-07T05:59:23.678Z,14.63
2023-05-07T06:01:52.269Z,15.08
2023-05-07T06:04:20.587Z,14.98
2023-05-07T06:06:48.871Z,14.97
2023-05-07T06:09:17.141Z,15.24
2023-05-07T06:11:46.865Z,15.10
2023-05-07T06:14:15.293Z,15.09
2023-05-07T06:16:43.651Z,16.02
2023-05-07T06:19:12.021Z,15.94
2023-05-07T06:21:41.578Z,16.18
2023-05-07T06:24:10.169Z,16.84
2023-05-07T06:26:38.358Z,17.15
2023-05-07T06:29:08.741Z,16.65
2023-05-07T06:31:37.165Z,16.55
2023-05-07T06:34:06.055Z,17.40
2023-05-07T06:36:34.333Z,18.02
2023-05-07T06:39:02.599Z,18.29
2023-05-07T06:41:30.820Z,17.82
2023-05-07T06:43:58.995Z,18.71
2023-05-07T06:46:29.566Z,19.44
2023-05-07T06:48:58.606Z,19.43
2023-05-07T06:51:26.862Z,19.72
2023-05-07T06:53:55.195Z,20.32
2023-05-07T06:56:24.063Z,20.36
2023-05-07T06:58:52.313Z,20.09
2023-05-07T07:01:21.134Z,20.60
2023-05-07T07:03:52.397Z,20.71
2023-05-07T07:06:21.185Z,20.78
2023-05-07T07:08:49.578Z,21.19
2023-05-07T07:11:18.117Z,21.61
2023-05-07T07:13:46.380Z,21.86
2023-05-07T07:16:14.736Z,21.75
2023-05-07T07:18:43.165Z,21.32
2023-05-07T07:21:13.004Z,22.00
2023-05-07T07:23:41.593Z,21.95
2023-05-07T07:26:09.852Z,21.90
2023-05-07T07:28:45.257Z,23.06
2023-05-07T07:31:15.596Z,22.94
2023-05-07T07:33:43.942Z,22.49
2023-05-07T07:36:13.651Z,23.02
2023-05-07T07:38:41.907Z,22.74
2023-05-07T07:41:10.725Z,23.37
2023-05-07T07:43:39.018Z,22.71
2023-05-07T07:46:07.329Z,22.99
2023-05-07T07:48:35.725Z,23.49
2023-05-07T07:51:04.021Z,24.23
2023-05-07T07:53:33.692Z,23.94
2023-05-07T07:56:03.499Z,24.51
2023-05-07T07:58:33.523Z,24.61
2023-05-07T08:01:01.745Z,25.72
2023-05-07T08:03:33.049Z,25.27
2023-05-07T08:06:01.368Z,25.44
2023-05-07T08:08:29.580Z,24.27
2023-05-07T08:10:59.556Z,24.40
2023-05-07T08:13:28.105Z,24.24
2023-05-07T08:15:56.490Z,25.41
2023-05-07T08:18:25.968Z,25.68
2023-05-07T08:20:54.408Z,26.29
2023-05-07T08:23:22.886Z,26.12
2023-05-07T08:25:52.389Z,26.20
2023-05-07T08:28:22.619Z,26.37
2023-05-07T08:30:50.902Z,26.75
2023-05-07T08:33:19.289Z,26.29
2023-05-07T08:35:47.527Z,26.67
2023-05-07T08:38:15.785Z,26.75
2023-05-07T08:40:44.036Z,26.60
2023-05-07T08:43:15.426Z,27.14
2023-05-07T08:45:48.137Z,28.12
2023-05-07T08:48:18.758Z,28.88
2023-05-07T08:50:47.297Z,28.46
2023-05-07T08:53:17.551Z,28.31
2023-05-07T08:55:46.570Z,29.21
2023-05-07T08:58:14.909Z,28.47
2023-05-07T09:00:44.768Z,29.87
2023-05-07T09:03:14.032Z,29.52
2023-05-07T09:05:42.731Z,28.53
2023-05-07T09:08:11.204Z,27.65
2023-05-07T09:10:39.637Z,28.34
2023-05-07T09:13:08.083Z,28.18
2023-05-07T09:15:36.454Z,27.89
2023-05-07T09:18:06.615Z,28.03
2023-05-07T09:20:35.015Z,24.36
2023-05-07T09:23:03.266Z,29.08
2023-05-07T09:25:32.814Z,29.82
2023-05-07T09:28:01.932Z,30.23
2023-05-07T09:30:31.454Z,30.34
2023-05-07T09:33:01.571Z,31.12
2023-05-07T09:35:31.773Z,29.83
2023-05-07T09:38:03.602Z,29.47
2023-05-07T09:40:33.252Z,29.89
2023-05-07T09:43:12.898Z,28.49
2023-05-07T09:45:41.303Z,28.27
2023-05-07T09:48:10.949Z,29.73
2023-05-07T09:50:48.264Z,31.02
2023-05-07T09:53:17.625Z,31.64
2023-05-07T09:55:46.202Z,30.64
2023-05-07T09:58:15.241Z,31.62
2023-05-07T10:00:44.885Z,31.57
2023-05-07T10:03:14.107Z,30.64
2023-05-07T10:05:45.660Z,30.97
2023-05-07T10:08:32.340Z,28.97
2023-05-07T10:11:01.957Z,29.06
2023-05-07T10:13:31.124Z,29.24
2023-05-07T10:15:59.954Z,29.41
2023-05-07T10:18:31.118Z,30.39
2023-05-07T10:21:07.394Z,30.54
2023-05-07T10:23:36.483Z,31.02
2023-05-07T10:26:07.693Z,30.79
2023-05-07T10:28:40.777Z,30.89
2023-05-07T10:31:25.966Z,31.24
2023-05-07T10:33:57.543Z,32.36
2023-05-07T10:36:28.907Z,31.16
2023-05-07T10:38:57.966Z,29.41
2023-05-07T10:41:26.293Z,29.23
2023-05-07T10:43:54.518Z,29.17
2023-05-07T10:46:24.691Z,28.82
2023-05-07T10:49:12.636Z,30.27
2023-05-07T10:51:42.414Z,29.73
2023-05-07T10:54:28.560Z,29.61
2023-05-07T10:56:56.928Z,30.15
2023-05-07T10:59:43.057Z,30.06
2023-05-07T11:02:12.540Z,30.84
2023-05-07T11:04:42.956Z,31.54
2023-05-07T11:07:31.151Z,32.00
2023-05-07T11:10:05.809Z,30.16
2023-05-07T11:12:54.081Z,30.71
2023-05-07T11:15:45.535Z,31.32
2023-05-07T11:18:18.416Z,30.06
2023-05-07T11:20:57.878Z,30.80
2023-05-07T11:24:12.001Z,30.50
2023-05-07T11:26:50.169Z,31.31
2023-05-07T11:29:22.504Z,31.87
2023-05-07T11:31:53.130Z,31.07
2023-05-07T11:34:25.163Z,30.41
2023-05-07T11:36:54.178Z,28.30
2023-05-07T11:39:30.856Z,28.44
2023-05-07T11:42:01.155Z,30.77
2023-05-07T11:44:43.810Z,31.84
2023-05-07T11:47:13.111Z,31.45
2023-05-07T11:49:41.857Z,31.59
2023-05-07T11:52:10.162Z,31.15
2023-05-07T11:54:39.148Z,30.19
2023-05-07T11:57:09.478Z,31.33
2023-05-07T11:59:42.331Z,30.54
2023-05-07T12:02:11.003Z,30.87
2023-05-07T12:04:40.950Z,30.58
2023-05-07T12:07:14.073Z,30.03
2023-05-07T12:09:42.623Z,30.34
2023-05-07T12:12:12.647Z,29.93
2023-05-07T12:14:41.496Z,29.21
2023-05-07T12:17:10.330Z,29.18
2023-05-07T12:19:39.823Z,29.61
2023-05-07T12:22:09.893Z,29.67
2023-05-07T12:24:47.999Z,28.52
2023-05-07T12:27:19.037Z,27.14
2023-05-07T12:29:48.557Z,28.40
2023-05-07T12:32:17.688Z,29.47
2023-05-07T12:34:46.420Z,29.49
2023-05-07T12:37:14.954Z,30.06
2023-05-07T12:39:49.456Z,30.96
2023-05-07T12:42:25.041Z,30.89
2023-05-07T12:44:53.460Z,30.50
2023-05-07T12:47:23.640Z,30.54
2023-05-07T12:49:52.704Z,30.15
2023-05-07T12:52:21.208Z,31.56
2023-05-07T12:54:50.472Z,31.08
2023-05-07T12:57:22.752Z,29.67
2023-05-07T12:59:51.008Z,28.80
2023-05-07T13:02:19.279Z,30.06
2023-05-07T13:04:48.928Z,30.89
2023-05-07T13:07:17.169Z,30.70
2023-05-07T13:09:45.494Z,29.67
2023-05-07T13:12:13.715Z,29.28
2023-05-07T13:14:43.384Z,28.34
2023-05-07T13:17:11.551Z,28.34
2023-05-07T13:19:39.921Z,27.93
2023-05-07T13:22:08.158Z,27.58
2023-05-07T13:24:36.436Z,27.62
2023-05-07T13:27:05.237Z,28.18
2023-05-07T13:29:33.524Z,29.30
2023-05-07T13:32:03.215Z,29.84
2023-05-07T13:34:31.549Z,30.80
2023-05-07T13:36:59.775Z,29.37
2023-05-07T13:39:28.122Z,28.64
2023-05-07T13:41:56.436Z,29.62
2023-05-07T13:44:24.675Z,28.81
2023-05-07T13:46:53.530Z,29.64
2023-05-07T13:49:23.161Z,29.99
2023-05-07T13:51:51.367Z,30.14
2023-05-07T13:54:19.730Z,30.37
2023-05-07T13:56:48.026Z,30.56
2023-05-07T13:59:16.396Z,31.37
2023-05-07T14:01:44.773Z,31.02
2023-05-07T14:04:13.058Z,29.95
2023-05-07T14:06:42.832Z,30.30
2023-05-07T14:09:13.302Z,30.16
2023-05-07T14:11:41.760Z,30.25
2023-05-07T14:14:11.990Z,29.36
2023-05-07T14:16:40.384Z,28.37
2023-05-07T14:19:08.647Z,29.38
2023-05-07T14:21:37.149Z,28.81
2023-05-07T14:24:08.286Z,28.34
2023-05-07T14:26:36.962Z,27.90
2023-05-07T14:29:05.423Z,26.10
2023-05-07T14:31:34.587Z,25.84
2023-05-07T14:34:03.491Z,25.63
2023-05-07T14:36:32.916Z,26.24
2023-05-07T14:39:01.375Z,26.55
2023-05-07T14:41:31.020Z,27.02
2023-05-07T14:44:00.131Z,26.05
2023-05-07T14:46:28.473Z,26.40
2023-05-07T14:48:56.802Z,26.78
2023-05-07T14:51:25.196Z,27.15
2023-05-07T14:53:53.433Z,27.28
2023-05-07T14:56:21.679Z,26.71
2023-05-07T14:58:51.660Z,26.10
2023-05-07T15:01:20.007Z,26.30
2023-05-07T15:03:48.423Z,25.40
2023-05-07T15:06:16.941Z,24.99
2023-05-07T15:08:45.149Z,24.76
2023-05-07T15:11:13.472Z,24.97
2023-05-07T15:13:41.732Z,24.34
2023-05-07T15:16:11.416Z,24.77
2023-05-07T15:18:39.725Z,24.42
2023-05-07T15:21:08.058Z,24.30
2023-05-07T15:23:36.443Z,24.16
2023-05-07T15:26:04.765Z,23.94
2023-05-07T15:28:33.160Z,23.72
2023-05-07T15:31:01.673Z,23.96
2023-05-07T15:33:31.526Z,23.90
2023-05-07T15:36:00.465Z,23.38
2023-05-07T15:38:28.711Z,23.92
2023-05-07T15:40:56.991Z,23.62
2023-05-07T15:43:26.042Z,23.43
2023-05-07T15:45:54.520Z,23.60
2023-05-07T15:48:22.850Z,23.04
2023-05-07T15:50:52.525Z,22.91
2023-05-07T15:53:20.841Z,22.70
2023-05-07T15:55:49.623Z,22.88
2023-05-07T15:58:20.477Z,22.58
2023-05-07T16:00:48.893Z,22.63
2023-05-07T16:03:19.104Z,22.62
2023-05-07T16:05:47.653Z,22.34
2023-05-07T16:08:17.333Z,22.84
2023-05-07T16:10:45.601Z,22.80
2023-05-07T16:13:13.836Z,22.16
2023-05-07T16:15:42.181Z,22.23
2023-05-07T16:18:10.868Z,22.39
2023-05-07T16:20:39.394Z,22.11
2023-05-07T16:23:07.642Z,22.07
2023-05-07T16:25:37.403Z,21.35
2023-05-07T16:28:06.053Z,21.80
2023-05-07T16:30:34.339Z,21.61
2023-05-07T16:33:03.126Z,21.60
2023-05-07T16:35:31.555Z,21.70
2023-05-07T16:37:59.867Z,21.36
2023-05-07T16:40:28.448Z,21.27
2023-05-07T16:42:58.157Z,20.91
2023-05-07T16:45:26.900Z,20.78
2023-05-07T16:47:56.815Z,20.69
2023-05-07T16:50:25.149Z,21.28
2023-05-07T16:52:56.317Z,20.95
2023-05-07T16:55:24.620Z,20.73
2023-05-07T16:57:53.046Z,20.80
2023-05-07T17:00:22.879Z,20.92
2023-05-07T17:02:51.445Z,20.40
2023-05-07T17:05:19.948Z,20.19
2023-05-07T17:07:48.249Z,19.80
2023-05-07T17:10:16.538Z,19.98
2023-05-07T17:12:44.920Z,19.71
2023-05-07T17:15:13.975Z,19.94
2023-05-07T17:17:43.876Z,20.27
2023-05-07T17:20:13.905Z,20.09
2023-05-07T17:22:42.445Z,20.14
2023-05-07T17:25:12.986Z,19.54
2023-05-07T17:27:42.732Z,19.53
2023-05-07T17:30:12.796Z,19.49
2023-05-07T17:32:41.566Z,19.29
2023-05-07T17:35:11.639Z,19.62
2023-05-07T17:37:40.261Z,19.92
2023-05-07T17:40:09.761Z,19.61
2023-05-07T17:42:38.109Z,19.81
2023-05-07T17:45:07.182Z,19.64
2023-05-07T17:47:35.845Z,19.66
2023-05-07T17:50:06.080Z,19.63
2023-05-07T17:52:36.690Z,19.62
2023-05-07T17:55:05.105Z,19.24
2023-05-07T17:57:35.431Z,19.25
2023-05-07T18:00:04.936Z,19.14
2023-05-07T18:02:33.371Z,19.40
2023-05-07T18:05:01.831Z,19.67
2023-05-07T18:07:30.224Z,19.83
2023-05-07T18:09:59.889Z,19.69
2023-05-07T18:12:28.268Z,19.61
2023-05-07T18:14:56.592Z,19.68
2023-05-07T18:17:26.836Z,19.49
2023-05-07T18:20:09.148Z,19.41
2023-05-07T18:22:37.528Z,19.12
2023-05-07T18:25:08.564Z,19.41
2023-05-07T18:27:36.922Z,19.30
2023-05-07T18:30:06.845Z,19.49
2023-05-07T18:32:35.662Z,18.93
2023-05-07T18:35:04.041Z,19.52
2023-05-07T18:37:32.406Z,19.07
2023-05-07T18:40:04.012Z,19.47
2023-05-07T18:42:36.263Z,19.31
2023-05-07T18:45:06.011Z,19.16
2023-05-07T18:47:34.493Z,18.78
2023-05-07T18:50:02.767Z,19.17
2023-05-07T18:52:31.177Z,19.11
2023-05-07T18:54:59.554Z,19.05
2023-05-07T18:57:29.637Z,18.99
2023-05-07T18:59:59.598Z,18.81
2023-05-07T19:02:27.873Z,18.78
2023-05-07T19:04:56.246Z,18.78
2023-05-07T19:07:24.624Z,18.81
2023-05-07T19:10:04.135Z,18.42
2023-05-07T19:12:33.505Z,18.80
2023-05-07T19:15:03.344Z,18.65
2023-05-07T19:17:31.641Z,18.53
2023-05-07T19:20:00.000Z,18.40
2023-05-07T19:22:28.584Z,18.56
2023-05-07T19:24:57.636Z,18.57
2023-05-07T19:27:29.176Z,18.12
2023-05-07T19:29:58.008Z,18.31
2023-05-07T19:32:30.516Z,18.48
2023-05-07T19:34:58.851Z,18.39
2023-05-07T19:37:28.039Z,18.19
2023-05-07T19:39:56.300Z,17.15
2023-05-07T19:42:24.625Z,17.32
2023-05-07T19:44:52.943Z,17.48
2023-05-07T19:47:21.282Z,17.66
2023-05-07T19:49:51.158Z,17.27
2023-05-07T19:52:19.416Z,17.80
2023-05-07T19:54:47.618Z,17.75
2023-05-07T19:57:17.904Z,17.39
2023-05-07T19:59:48.148Z,17.09
2023-05-07T20:02:16.652Z,17.08
2023-05-07T20:04:45.128Z,17.30
2023-05-07T20:07:14.807Z,16.72
2023-05-07T20:09:43.105Z,16.59
2023-05-07T20:12:11.392Z,16.82
2023-05-07T20:14:39.594Z,16.99
2023-05-07T20:17:08.090Z,17.25
2023-05-07T20:19:36.404Z,16.96
2023-05-07T20:22:04.861Z,16.62
2023-05-07T20:24:39.216Z,16.65
2023-05-07T20:27:07.561Z,16.85
2023-05-07T20:29:36.125Z,17.12
2023-05-07T20:32:04.559Z,17.32
2023-05-07T20:34:32.894Z,17.27
2023-05-07T20:37:01.906Z,17.02
2023-05-07T20:39:30.233Z,17.26
2023-05-07T20:41:59.820Z,17.43
2023-05-07T20:44:28.141Z,17.50
2023-05-07T20:46:56.470Z,17.52
2023-05-07T20:49:24.805Z,17.55
2023-05-07T20:51:53.079Z,17.44
2023-05-07T20:54:23.172Z,17.38
2023-05-07T20:56:51.374Z,17.29
2023-05-07T20:59:21.192Z,17.15
2023-05-07T21:01:49.584Z,17.23
2023-05-07T21:04:17.936Z,17.33
2023-05-07T21:06:46.250Z,17.25
2023-05-07T21:09:14.543Z,17.12
2023-05-07T21:11:42.723Z,16.94
2023-05-07T21:14:10.948Z,17.04
2023-05-07T21:16:42.791Z,17.17
2023-05-07T21:19:11.140Z,16.64
2023-05-07T21:21:39.466Z,16.44
2023-05-07T21:24:08.712Z,16.32
2023-05-07T21:26:36.981Z,16.58
2023-05-07T21:29:05.252Z,16.64
2023-05-07T21:31:33.640Z,16.39
2023-05-07T21:34:03.686Z,16.71
2023-05-07T21:36:31.856Z,16.71
2023-05-07T21:39:00.182Z,15.63
2023-05-07T21:41:28.433Z,15.94
2023-05-07T21:43:56.595Z,15.88
2023-05-07T21:46:24.920Z,16.19
2023-05-07T21:48:53.166Z,16.37
2023-05-07T21:51:22.800Z,16.37
2023-05-07T21:53:51.120Z,16.43
2023-05-07T21:56:19.332Z,16.61
2023-05-07T21:58:48.670Z,16.60
2023-05-07T22:01:16.975Z,16.39
2023-05-07T22:03:45.363Z,16.75
2023-05-07T22:06:13.685Z,16.65
2023-05-07T22:08:43.369Z,16.63
2023-05-07T22:11:11.567Z,16.74
2023-05-07T22:13:39.835Z,16.48
2023-05-07T22:16:09.445Z,16.60
2023-05-07T22:18:37.704Z,16.71
2023-05-07T22:21:06.361Z,16.72
2023-05-07T22:23:34.890Z,16.41
2023-05-07T22:26:11.668Z,16.68
2023-05-07T22:28:40.240Z,16.61
2023-05-07T22:31:08.788Z,16.55
2023-05-07T22:33:37.338Z,16.48
2023-05-07T22:36:07.924Z,16.49
2023-05-07T22:38:36.315Z,16.44
2023-05-07T22:41:06.047Z,16.12
2023-05-07T22:43:34.316Z,16.02
2023-05-07T22:46:03.102Z,15.53
2023-05-07T22:48:31.802Z,15.83
2023-05-07T22:51:00.094Z,16.20
2023-05-07T22:53:28.403Z,16.17
2023-05-07T22:55:56.862Z,16.21
2023-05-07T22:58:27.049Z,16.09
2023-05-07T23:00:55.393Z,15.95
2023-05-07T23:03:24.014Z,15.85
2023-05-07T23:05:53.607Z,15.95
2023-05-07T23:08:21.904Z,15.87
2023-05-07T23:10:50.244Z,15.55
2023-05-07T23:13:18.653Z,15.44
2023-05-07T23:15:48.357Z,15.44
2023-05-07T23:18:16.557Z,15.20
2023-05-07T23:20:44.967Z,15.59
2023-05-07T23:23:13.305Z,15.86
2023-05-07T23:25:41.644Z,15.87
2023-05-07T23:28:09.999Z,15.85
2023-05-07T23:30:38.207Z,15.89
2023-05-07T23:33:07.884Z,15.80
2023-05-07T23:35:36.140Z,15.70
2023-05-07T23:38:04.461Z,15.65
2023-05-07T23:40:32.669Z,15.74
2023-05-07T23:43:00.953Z,15.64
2023-05-07T23:45:29.199Z,15.51
2023-05-07T23:47:57.483Z,15.49
2023-05-07T23:50:27.037Z,15.47
2023-05-07T23:52:55.274Z,15.66
2023-05-07T23:55:23.518Z,15.67
2023-05-07T23:57:51.769Z,15.76
